N4LH SABE-SUMU
Flight info
| Callsign | N4LH |
|---|---|
| Flight time | 0h 27m |
| Altitude | 23000 |
| Route | DORVO8 DORVO A305 TOKAM |
| Aircraft | C750/M-SBDE3FGHRWXY/S |
Departure
| Time | 2026-04-21 21:33 |
|---|---|
| Airport | Aeroparque Jorge Newbery (SABE) |
Arrival
| Time | 2026-04-21 22:01 |
|---|---|
| Airport | Carrasco General Cesáreo L. Berisso International Airport (SUMU) |
| Time | Latitude | Longitude | Altitude | Speed | Heading |
|---|---|---|---|---|---|
| 2026-04-21 21:17 | -34.56382 | -58.41068 | 30 ft | 0 kts | 213° |
| 2026-04-21 21:26 | -34.56401 | -58.41084 | 30 ft | 8 kts | 226° |
| 2026-04-21 21:26 | -34.56403 | -58.41090 | 30 ft | 0 kts | 287° |
| 2026-04-21 21:26 | -34.56397 | -58.41111 | 31 ft | 2 kts | 288° |
| 2026-04-21 21:26 | -34.56391 | -58.41127 | 31 ft | 1 kts | 300° |
| 2026-04-21 21:27 | -34.56385 | -58.41140 | 31 ft | 1 kts | 301° |
| 2026-04-21 21:27 | -34.56371 | -58.41164 | 32 ft | 7 kts | 304° |
| 2026-04-21 21:27 | -34.56343 | -58.41215 | 33 ft | 6 kts | 308° |
| 2026-04-21 21:27 | -34.56316 | -58.41259 | 33 ft | 6 kts | 303° |
| 2026-04-21 21:28 | -34.56292 | -58.41304 | 34 ft | 6 kts | 303° |
| 2026-04-21 21:28 | -34.56267 | -58.41348 | 34 ft | 6 kts | 303° |
| 2026-04-21 21:28 | -34.56203 | -58.41462 | 33 ft | 9 kts | 317° |
| 2026-04-21 21:29 | -34.56139 | -58.41458 | 31 ft | 10 kts | 33° |
| 2026-04-21 21:29 | -34.56072 | -58.41404 | 30 ft | 12 kts | 34° |
| 2026-04-21 21:29 | -34.55994 | -58.41340 | 29 ft | 14 kts | 31° |
| 2026-04-21 21:29 | -34.55911 | -58.41331 | 27 ft | 14 kts | 301° |
| 2026-04-21 21:30 | -34.55864 | -58.41437 | 26 ft | 11 kts | 296° |
| 2026-04-21 21:30 | -34.55830 | -58.41522 | 25 ft | 12 kts | 295° |
| 2026-04-21 21:30 | -34.55789 | -58.41620 | 25 ft | 13 kts | 296° |
| 2026-04-21 21:30 | -34.55743 | -58.41724 | 24 ft | 14 kts | 297° |
| 2026-04-21 21:31 | -34.55690 | -58.41835 | 22 ft | 15 kts | 301° |
| 2026-04-21 21:31 | -34.55629 | -58.41945 | 22 ft | 11 kts | 304° |
| 2026-04-21 21:31 | -34.55583 | -58.42025 | 22 ft | 11 kts | 303° |
| 2026-04-21 21:31 | -34.55533 | -58.42106 | 22 ft | 12 kts | 307° |
| 2026-04-21 21:32 | -34.55481 | -58.42189 | 23 ft | 12 kts | 307° |
| 2026-04-21 21:32 | -34.55432 | -58.42268 | 24 ft | 11 kts | 306° |
| 2026-04-21 21:32 | -34.55383 | -58.42346 | 24 ft | 12 kts | 305° |
| 2026-04-21 21:32 | -34.55358 | -58.42437 | 25 ft | 10 kts | 278° |
| 2026-04-21 21:33 | -34.55387 | -58.42506 | 26 ft | 11 kts | 176° |
| 2026-04-21 21:33 | -34.55568 | -58.42204 | 24 ft | 100 kts | 126° |
| 2026-04-21 21:33 | -34.56141 | -58.41170 | 131 ft | 187 kts | 124° |
| 2026-04-21 21:33 | -34.56992 | -58.39631 | 891 ft | 240 kts | 124° |
| 2026-04-21 21:34 | -34.57726 | -58.37905 | 2568 ft | 244 kts | 99° |
| 2026-04-21 21:34 | -34.57528 | -58.36022 | 4312 ft | 237 kts | 62° |
| 2026-04-21 21:34 | -34.56449 | -58.34370 | 5048 ft | 273 kts | 36° |
| 2026-04-21 21:34 | -34.54892 | -58.32957 | 6107 ft | 281 kts | 33° |
| 2026-04-21 21:35 | -34.53490 | -58.31504 | 7424 ft | 280 kts | 40° |
| 2026-04-21 21:35 | -34.52173 | -58.29693 | 8347 ft | 294 kts | 49° |
| 2026-04-21 21:35 | -34.51099 | -58.27672 | 9643 ft | 292 kts | 56° |
| 2026-04-21 21:35 | -34.50352 | -58.25266 | 10188 ft | 324 kts | 78° |
| 2026-04-21 21:36 | -34.50524 | -58.22396 | 10323 ft | 368 kts | 107° |
| 2026-04-21 21:36 | -34.51895 | -58.19779 | 11276 ft | 373 kts | 135° |
| 2026-04-21 21:36 | -34.53513 | -58.17379 | 12324 ft | 377 kts | 117° |
| 2026-04-21 21:36 | -34.54516 | -58.14465 | 13333 ft | 381 kts | 111° |
| 2026-04-21 21:37 | -34.55394 | -58.11409 | 14216 ft | 387 kts | 109° |
| 2026-04-21 21:37 | -34.56337 | -58.08358 | 15126 ft | 392 kts | 106° |
| 2026-04-21 21:37 | -34.57193 | -58.05201 | 16041 ft | 399 kts | 107° |
| 2026-04-21 21:37 | -34.58063 | -58.02012 | 17028 ft | 405 kts | 106° |
| 2026-04-21 21:38 | -34.58947 | -57.98760 | 18021 ft | 410 kts | 106° |
| 2026-04-21 21:38 | -34.59832 | -57.95484 | 18900 ft | 416 kts | 107° |
| 2026-04-21 21:38 | -34.60745 | -57.92121 | 19709 ft | 424 kts | 107° |
| 2026-04-21 21:38 | -34.61669 | -57.88706 | 20513 ft | 430 kts | 107° |
| 2026-04-21 21:39 | -34.62600 | -57.85259 | 21299 ft | 436 kts | 107° |
| 2026-04-21 21:39 | -34.63551 | -57.81743 | 22043 ft | 443 kts | 108° |
| 2026-04-21 21:39 | -34.64501 | -57.78219 | 22773 ft | 449 kts | 108° |
| 2026-04-21 21:39 | -34.65496 | -57.74528 | 22999 ft | 469 kts | 108° |
| 2026-04-21 21:40 | -34.66535 | -57.70681 | 23036 ft | 492 kts | 108° |
| 2026-04-21 21:40 | -34.67615 | -57.66661 | 23048 ft | 513 kts | 108° |
| 2026-04-21 21:40 | -34.68737 | -57.62480 | 23042 ft | 529 kts | 108° |
| 2026-04-21 21:40 | -34.69884 | -57.58201 | 23024 ft | 540 kts | 108° |
| 2026-04-21 21:41 | -34.71064 | -57.53855 | 23028 ft | 546 kts | 109° |
| 2026-04-21 21:41 | -34.71876 | -57.49451 | 22979 ft | 530 kts | 93° |
| 2026-04-21 21:41 | -34.72100 | -57.45039 | 23005 ft | 518 kts | 96° |
| 2026-04-21 21:41 | -34.72485 | -57.40743 | 23017 ft | 507 kts | 93° |
| 2026-04-21 21:42 | -34.72831 | -57.36516 | 23013 ft | 498 kts | 95° |
| 2026-04-21 21:42 | -34.73170 | -57.32426 | 23006 ft | 491 kts | 94° |
| 2026-04-21 21:42 | -34.73521 | -57.28285 | 22969 ft | 485 kts | 94° |
| 2026-04-21 21:42 | -34.73856 | -57.24271 | 22806 ft | 483 kts | 94° |
| 2026-04-21 21:43 | -34.74192 | -57.20230 | 22548 ft | 483 kts | 94° |
| 2026-04-21 21:43 | -34.74530 | -57.16163 | 22380 ft | 481 kts | 94° |
| 2026-04-21 21:43 | -34.74865 | -57.12117 | 22208 ft | 479 kts | 94° |
| 2026-04-21 21:43 | -34.75194 | -57.08107 | 22025 ft | 478 kts | 94° |
| 2026-04-21 21:44 | -34.75519 | -57.04139 | 21952 ft | 471 kts | 94° |
| 2026-04-21 21:44 | -34.75839 | -57.00257 | 21933 ft | 457 kts | 94° |
| 2026-04-21 21:44 | -34.76146 | -56.96464 | 21914 ft | 445 kts | 94° |
| 2026-04-21 21:44 | -34.76446 | -56.92763 | 21850 ft | 431 kts | 93° |
| 2026-04-21 21:45 | -34.76734 | -56.89198 | 21665 ft | 420 kts | 93° |
| 2026-04-21 21:45 | -34.77012 | -56.85750 | 21009 ft | 409 kts | 93° |
| 2026-04-21 21:45 | -34.77287 | -56.82336 | 20020 ft | 406 kts | 93° |
| 2026-04-21 21:45 | -34.77553 | -56.78981 | 19104 ft | 401 kts | 92° |
| 2026-04-21 21:46 | -34.77821 | -56.75656 | 18239 ft | 393 kts | 92° |
| 2026-04-21 21:46 | -34.78138 | -56.72408 | 17311 ft | 390 kts | 100° |
| 2026-04-21 21:46 | -34.79230 | -56.69396 | 16403 ft | 387 kts | 122° |
| 2026-04-21 21:46 | -34.80677 | -56.66704 | 15530 ft | 381 kts | 123° |
| 2026-04-21 21:47 | -34.82092 | -56.64050 | 14668 ft | 376 kts | 123° |
| 2026-04-21 21:47 | -34.83491 | -56.61409 | 13801 ft | 370 kts | 123° |
| 2026-04-21 21:47 | -34.84852 | -56.58826 | 12884 ft | 361 kts | 122° |
| 2026-04-21 21:47 | -34.86126 | -56.56401 | 12834 ft | 320 kts | 122° |
| 2026-04-21 21:48 | -34.87282 | -56.54207 | 12467 ft | 299 kts | 122° |
| 2026-04-21 21:48 | -34.88385 | -56.52101 | 11818 ft | 295 kts | 122° |
| 2026-04-21 21:48 | -34.89484 | -56.50008 | 11504 ft | 296 kts | 122° |
| 2026-04-21 21:48 | -34.90598 | -56.47887 | 11203 ft | 292 kts | 122° |
| 2026-04-21 21:49 | -34.91676 | -56.45826 | 10766 ft | 288 kts | 123° |
| 2026-04-21 21:49 | -34.92741 | -56.43798 | 10335 ft | 284 kts | 122° |
| 2026-04-21 21:49 | -34.93796 | -56.41780 | 9879 ft | 281 kts | 122° |
| 2026-04-21 21:49 | -34.94840 | -56.39785 | 9455 ft | 278 kts | 123° |
| 2026-04-21 21:50 | -34.95875 | -56.37809 | 8950 ft | 278 kts | 123° |
| 2026-04-21 21:50 | -34.96899 | -56.35859 | 8504 ft | 276 kts | 122° |
| 2026-04-21 21:50 | -34.97927 | -56.33893 | 8052 ft | 273 kts | 121° |
| 2026-04-21 21:50 | -34.98920 | -56.31976 | 7557 ft | 265 kts | 119° |
| 2026-04-21 21:51 | -34.99426 | -56.29877 | 6803 ft | 256 kts | 82° |
| 2026-04-21 21:51 | -34.99124 | -56.27786 | 6126 ft | 251 kts | 83° |
| 2026-04-21 21:51 | -34.99577 | -56.25760 | 5439 ft | 257 kts | 122° |
| 2026-04-21 21:51 | -35.00960 | -56.24425 | 4738 ft | 258 kts | 161° |
| 2026-04-21 21:52 | -35.02696 | -56.24327 | 4071 ft | 252 kts | 199° |
| 2026-04-21 21:52 | -35.04101 | -56.25461 | 3346 ft | 243 kts | 237° |
| 2026-04-21 21:52 | -35.04536 | -56.27277 | 3051 ft | 212 kts | 283° |
| 2026-04-21 21:52 | -35.03963 | -56.28614 | 2986 ft | 156 kts | 330° |
| 2026-04-21 21:53 | -35.03019 | -56.28852 | 2987 ft | 138 kts | 16° |
| 2026-04-21 21:53 | -35.02166 | -56.28356 | 3087 ft | 132 kts | 33° |
| 2026-04-21 21:53 | -35.01443 | -56.27653 | 3023 ft | 131 kts | 34° |
| 2026-04-21 21:53 | -35.00732 | -56.26956 | 3002 ft | 125 kts | 35° |
| 2026-04-21 21:54 | -35.00084 | -56.26289 | 2964 ft | 116 kts | 35° |
| 2026-04-21 21:54 | -34.99456 | -56.25638 | 2954 ft | 127 kts | 35° |
| 2026-04-21 21:54 | -34.98745 | -56.24902 | 3024 ft | 135 kts | 36° |
| 2026-04-21 21:54 | -34.98040 | -56.24153 | 2986 ft | 132 kts | 36° |
| 2026-04-21 21:55 | -34.97356 | -56.23430 | 2975 ft | 129 kts | 36° |
| 2026-04-21 21:55 | -34.96682 | -56.22718 | 2980 ft | 126 kts | 36° |
| 2026-04-21 21:55 | -34.96020 | -56.22014 | 2982 ft | 126 kts | 35° |
| 2026-04-21 21:55 | -34.95344 | -56.21299 | 2999 ft | 130 kts | 36° |
| 2026-04-21 21:56 | -34.94657 | -56.20578 | 2990 ft | 129 kts | 36° |
| 2026-04-21 21:56 | -34.94014 | -56.19829 | 2986 ft | 129 kts | 46° |
| 2026-04-21 21:56 | -34.93489 | -56.18955 | 2990 ft | 127 kts | 48° |
| 2026-04-21 21:56 | -34.92955 | -56.18080 | 2992 ft | 128 kts | 47° |
| 2026-04-21 21:57 | -34.92415 | -56.17185 | 2908 ft | 139 kts | 47° |
| 2026-04-21 21:57 | -34.91820 | -56.16221 | 2719 ft | 148 kts | 49° |
| 2026-04-21 21:57 | -34.91186 | -56.15183 | 2413 ft | 154 kts | 49° |
| 2026-04-21 21:57 | -34.90538 | -56.14120 | 2074 ft | 158 kts | 49° |
| 2026-04-21 21:58 | -34.89901 | -56.13059 | 1760 ft | 154 kts | 50° |
| 2026-04-21 21:58 | -34.89299 | -56.12060 | 1675 ft | 134 kts | 50° |
| 2026-04-21 21:58 | -34.88801 | -56.11230 | 1618 ft | 114 kts | 49° |
| 2026-04-21 21:58 | -34.88303 | -56.10389 | 1345 ft | 126 kts | 51° |
| 2026-04-21 21:59 | -34.87826 | -56.09553 | 1029 ft | 121 kts | 52° |
| 2026-04-21 21:59 | -34.87319 | -56.08746 | 818 ft | 126 kts | 50° |
| 2026-04-21 21:59 | -34.86772 | -56.07888 | 868 ft | 128 kts | 50° |
| 2026-04-21 21:59 | -34.86217 | -56.07024 | 757 ft | 130 kts | 51° |
| 2026-04-21 22:00 | -34.85697 | -56.06115 | 570 ft | 128 kts | 54° |
| 2026-04-21 22:00 | -34.85178 | -56.05275 | 345 ft | 123 kts | 53° |
| 2026-04-21 22:00 | -34.84652 | -56.04423 | 172 ft | 130 kts | 52° |
| 2026-04-21 22:00 | -34.84132 | -56.03572 | 60 ft | 114 kts | 53° |
| 2026-04-21 22:01 | -34.83709 | -56.02884 | 66 ft | 88 kts | 52° |
| 2026-04-21 22:01 | -34.83408 | -56.02393 | 75 ft | 39 kts | 53° |
| 2026-04-21 22:01 | -34.83340 | -56.02275 | 75 ft | 18 kts | 54° |
| 2026-04-21 22:01 | -34.83279 | -56.02166 | 75 ft | 8 kts | 58° |
| 2026-04-21 22:02 | -34.83247 | -56.02107 | 76 ft | 9 kts | 55° |
| 2026-04-21 22:02 | -34.83213 | -56.01982 | 78 ft | 17 kts | 116° |
| 2026-04-21 22:02 | -34.83286 | -56.01906 | 80 ft | 9 kts | 142° |
| 2026-04-21 22:02 | -34.83341 | -56.01858 | 81 ft | 9 kts | 147° |
| 2026-04-21 22:03 | -34.83401 | -56.01810 | 80 ft | 10 kts | 139° |
| 2026-04-21 22:03 | -34.83470 | -56.01759 | 79 ft | 12 kts | 175° |
| 2026-04-21 22:03 | -34.83537 | -56.01821 | 77 ft | 14 kts | 237° |
| 2026-04-21 22:03 | -34.83599 | -56.01931 | 73 ft | 16 kts | 235° |
| 2026-04-21 22:04 | -34.83628 | -56.01982 | 72 ft | 4 kts | 232° |
| 2026-04-21 22:04 | -34.83653 | -56.02021 | 72 ft | 6 kts | 233° |
| 2026-04-21 22:04 | -34.83685 | -56.02076 | 71 ft | 9 kts | 234° |
| 2026-04-21 22:04 | -34.83730 | -56.02151 | 69 ft | 12 kts | 232° |
| 2026-04-21 22:05 | -34.83743 | -56.02172 | 69 ft | 2 kts | 232° |
| 2026-04-21 22:05 | -34.83759 | -56.02198 | 68 ft | 5 kts | 237° |
| 2026-04-21 22:05 | -34.83791 | -56.02235 | 67 ft | 8 kts | 191° |
| 2026-04-21 22:05 | -34.83861 | -56.02246 | 64 ft | 12 kts | 184° |
| 2026-04-21 22:06 | -34.83960 | -56.02249 | 60 ft | 16 kts | 181° |
| 2026-04-21 22:06 | -34.84008 | -56.02283 | 58 ft | 8 kts | 311° |
| 2026-04-21 22:06 | -34.84027 | -56.02327 | 58 ft | 6 kts | 229° |
| 2026-04-21 22:06 | -34.84031 | -56.02331 | 58 ft | 0 kts | 213° |